sensor_id;sensor_type;location;lat;lon;timestamp;temperature;humidity
68378;DHT22;55322;48.146;11.516;2022-10-16T00:01:15;12.94;96.13
68378;DHT22;55322;48.146;11.516;2022-10-16T00:03:42;12.92;96.12
68378;DHT22;55322;48.146;11.516;2022-10-16T00:06:09;12.84;96.08
68378;DHT22;55322;48.146;11.516;2022-10-16T00:08:35;12.84;96.09
68378;DHT22;55322;48.146;11.516;2022-10-16T00:11:10;12.83;96.29
68378;DHT22;55322;48.146;11.516;2022-10-16T00:13:38;12.77;96.07
68378;DHT22;55322;48.146;11.516;2022-10-16T00:16:04;12.73;96.21
68378;DHT22;55322;48.146;11.516;2022-10-16T00:18:30;12.70;96.21
68378;DHT22;55322;48.146;11.516;2022-10-16T00:21:01;12.62;96.07
68378;DHT22;55322;48.146;11.516;2022-10-16T00:23:26;12.63;96.40
68378;DHT22;55322;48.146;11.516;2022-10-16T00:25:59;12.69;96.58
68378;DHT22;55322;48.146;11.516;2022-10-16T00:28:26;12.66;96.40
68378;DHT22;55322;48.146;11.516;2022-10-16T00:30:51;12.64;96.40
68378;DHT22;55322;48.146;11.516;2022-10-16T00:33:17;12.63;96.54
68378;DHT22;55322;48.146;11.516;2022-10-16T00:35:42;12.55;96.32
68378;DHT22;55322;48.146;11.516;2022-10-16T00:38:07;12.66;96.62
68378;DHT22;55322;48.146;11.516;2022-10-16T00:40:33;12.72;96.48
68378;DHT22;55322;48.146;11.516;2022-10-16T00:42:58;12.79;96.24
68378;DHT22;55322;48.146;11.516;2022-10-16T00:45:24;12.82;96.03
68378;DHT22;55322;48.146;11.516;2022-10-16T00:47:51;12.79;96.07
68378;DHT22;55322;48.146;11.516;2022-10-16T00:50:27;12.77;96.08
68378;DHT22;55322;48.146;11.516;2022-10-16T00:52:54;12.72;96.09
68378;DHT22;55322;48.146;11.516;2022-10-16T00:55:21;12.64;96.10
68378;DHT22;55322;48.146;11.516;2022-10-16T00:57:47;12.66;96.13
68378;DHT22;55322;48.146;11.516;2022-10-16T01:00:17;12.60;96.21
68378;DHT22;55322;48.146;11.516;2022-10-16T01:02:43;12.57;96.21
68378;DHT22;55322;48.146;11.516;2022-10-16T01:05:08;12.60;96.38
68378;DHT22;55322;48.146;11.516;2022-10-16T01:10:55;12.56;96.41
68378;DHT22;55322;48.146;11.516;2022-10-16T01:13:10;12.57;96.34
68378;DHT22;55322;48.146;11.516;2022-10-16T01:20:36;12.46;96.11
68378;DHT22;55322;48.146;11.516;2022-10-16T01:28:53;12.46;96.68
68378;DHT22;55322;48.146;11.516;2022-10-16T01:31:24;12.55;96.51
68378;DHT22;55322;48.146;11.516;2022-10-16T01:34:11;12.53;96.43
68378;DHT22;55322;48.146;11.516;2022-10-16T01:36:47;12.49;96.48
68378;DHT22;55322;48.146;11.516;2022-10-16T01:39:20;12.45;96.27
68378;DHT22;55322;48.146;11.516;2022-10-16T01:41:50;12.39;96.29
68378;DHT22;55322;48.146;11.516;2022-10-16T01:44:23;12.35;96.19
68378;DHT22;55322;48.146;11.516;2022-10-16T01:46:51;12.33;96.46
68378;DHT22;55322;48.146;11.516;2022-10-16T01:49:18;12.42;96.53
68378;DHT22;55322;48.146;11.516;2022-10-16T01:51:47;12.45;96.54
68378;DHT22;55322;48.146;11.516;2022-10-16T01:54:14;12.48;96.34
68378;DHT22;55322;48.146;11.516;2022-10-16T01:56:41;12.52;96.31
68378;DHT22;55322;48.146;11.516;2022-10-16T01:59:16;12.56;96.09
68378;DHT22;55322;48.146;11.516;2022-10-16T02:01:47;12.57;96.01
68378;DHT22;55322;48.146;11.516;2022-10-16T02:04:19;12.66;95.57
68378;DHT22;55322;48.146;11.516;2022-10-16T02:06:45;12.63;95.62
68378;DHT22;55322;48.146;11.516;2022-10-16T02:09:11;12.64;95.60
68378;DHT22;55322;48.146;11.516;2022-10-16T02:11:36;12.60;95.63
68378;DHT22;55322;48.146;11.516;2022-10-16T02:14:04;12.59;95.57
68378;DHT22;55322;48.146;11.516;2022-10-16T02:16:40;12.60;95.38
68378;DHT22;55322;48.146;11.516;2022-10-16T02:19:07;12.57;95.55
68378;DHT22;55322;48.146;11.516;2022-10-16T02:24:51;12.62;95.35
68378;DHT22;55322;48.146;11.516;2022-10-16T02:29:50;12.62;95.01
68378;DHT22;55322;48.146;11.516;2022-10-16T02:32:21;12.62;95.08
68378;DHT22;55322;48.146;11.516;2022-10-16T02:34:49;12.67;94.85
68378;DHT22;55322;48.146;11.516;2022-10-16T02:37:16;12.60;94.94
68378;DHT22;55322;48.146;11.516;2022-10-16T02:39:42;12.55;94.98
68378;DHT22;55322;48.146;11.516;2022-10-16T02:42:12;12.55;94.82
68378;DHT22;55322;48.146;11.516;2022-10-16T02:44:38;12.57;94.68
68378;DHT22;55322;48.146;11.516;2022-10-16T02:47:03;12.67;94.18
68378;DHT22;55322;48.146;11.516;2022-10-16T02:49:28;12.64;94.23
68378;DHT22;55322;48.146;11.516;2022-10-16T02:51:54;12.67;94.03
68378;DHT22;55322;48.146;11.516;2022-10-16T02:54:19;12.56;94.31
68378;DHT22;55322;48.146;11.516;2022-10-16T02:56:45;12.53;94.21
68378;DHT22;55322;48.146;11.516;2022-10-16T02:59:10;12.45;94.58
68378;DHT22;55322;48.146;11.516;2022-10-16T03:01:35;12.38;94.76
68378;DHT22;55322;48.146;11.516;2022-10-16T03:04:00;12.39;94.67
68378;DHT22;55322;48.146;11.516;2022-10-16T03:06:26;12.38;94.66
68378;DHT22;55322;48.146;11.516;2022-10-16T03:08:51;12.40;94.58
68378;DHT22;55322;48.146;11.516;2022-10-16T03:11:16;12.48;94.26
68378;DHT22;55322;48.146;11.516;2022-10-16T03:13:42;12.46;94.37
68378;DHT22;55322;48.146;11.516;2022-10-16T03:16:07;12.48;94.13
68378;DHT22;55322;48.146;11.516;2022-10-16T03:18:32;12.48;94.27
68378;DHT22;55322;48.146;11.516;2022-10-16T03:20:58;12.48;94.09
68378;DHT22;55322;48.146;11.516;2022-10-16T03:23:23;12.53;93.90
68378;DHT22;55322;48.146;11.516;2022-10-16T03:25:48;12.50;93.87
68378;DHT22;55322;48.146;11.516;2022-10-16T03:28:14;12.56;93.81
68378;DHT22;55322;48.146;11.516;2022-10-16T03:30:39;12.55;93.50
68378;DHT22;55322;48.146;11.516;2022-10-16T03:33:05;12.57;93.48
68378;DHT22;55322;48.146;11.516;2022-10-16T03:35:31;12.57;93.87
68378;DHT22;55322;48.146;11.516;2022-10-16T03:37:57;12.57;94.04
68378;DHT22;55322;48.146;11.516;2022-10-16T03:40:23;12.59;93.94
68378;DHT22;55322;48.146;11.516;2022-10-16T03:42:48;12.72;93.62
68378;DHT22;55322;48.146;11.516;2022-10-16T03:45:14;12.77;93.13
68378;DHT22;55322;48.146;11.516;2022-10-16T03:47:39;12.75;93.12
68378;DHT22;55322;48.146;11.516;2022-10-16T03:50:05;12.75;93.02
68378;DHT22;55322;48.146;11.516;2022-10-16T03:52:30;12.76;93.24
68378;DHT22;55322;48.146;11.516;2022-10-16T03:54:57;12.80;93.12
68378;DHT22;55322;48.146;11.516;2022-10-16T03:57:22;12.82;92.68
68378;DHT22;55322;48.146;11.516;2022-10-16T03:59:48;12.93;91.80
68378;DHT22;55322;48.146;11.516;2022-10-16T04:02:13;12.99;92.13
68378;DHT22;55322;48.146;11.516;2022-10-16T04:04:39;12.99;91.66
68378;DHT22;55322;48.146;11.516;2022-10-16T04:07:04;13.00;91.98
68378;DHT22;55322;48.146;11.516;2022-10-16T04:09:29;13.02;91.85
68378;DHT22;55322;48.146;11.516;2022-10-16T04:11:55;13.00;91.63
68378;DHT22;55322;48.146;11.516;2022-10-16T04:14:20;13.03;91.93
68378;DHT22;55322;48.146;11.516;2022-10-16T04:16:45;13.04;92.00
68378;DHT22;55322;48.146;11.516;2022-10-16T04:19:11;13.04;91.95
68378;DHT22;55322;48.146;11.516;2022-10-16T04:21:36;12.97;93.36
68378;DHT22;55322;48.146;11.516;2022-10-16T04:24:02;12.90;93.62
68378;DHT22;55322;48.146;11.516;2022-10-16T04:26:28;12.87;94.29
68378;DHT22;55322;48.146;11.516;2022-10-16T04:28:54;12.83;93.62
68378;DHT22;55322;48.146;11.516;2022-10-16T04:31:19;12.82;93.77
68378;DHT22;55322;48.146;11.516;2022-10-16T04:33:45;12.89;92.54
68378;DHT22;55322;48.146;11.516;2022-10-16T04:36:10;12.89;93.00
68378;DHT22;55322;48.146;11.516;2022-10-16T04:38:36;12.96;92.17
68378;DHT22;55322;48.146;11.516;2022-10-16T04:41:03;12.99;92.51
68378;DHT22;55322;48.146;11.516;2022-10-16T04:43:28;12.97;92.97
68378;DHT22;55322;48.146;11.516;2022-10-16T04:45:53;13.02;92.53
68378;DHT22;55322;48.146;11.516;2022-10-16T04:48:20;13.03;92.33
68378;DHT22;55322;48.146;11.516;2022-10-16T04:50:45;13.02;92.61
68378;DHT22;55322;48.146;11.516;2022-10-16T04:53:11;13.03;91.78
68378;DHT22;55322;48.146;11.516;2022-10-16T04:55:37;13.10;91.05
68378;DHT22;55322;48.146;11.516;2022-10-16T04:58:03;13.10;91.14
68378;DHT22;55322;48.146;11.516;2022-10-16T05:00:28;13.13;91.56
68378;DHT22;55322;48.146;11.516;2022-10-16T05:02:53;13.13;91.52
68378;DHT22;55322;48.146;11.516;2022-10-16T05:05:19;13.20;90.75
68378;DHT22;55322;48.146;11.516;2022-10-16T05:07:45;13.25;90.78
68378;DHT22;55322;48.146;11.516;2022-10-16T05:10:11;13.23;90.97
68378;DHT22;55322;48.146;11.516;2022-10-16T05:12:36;13.28;90.70
68378;DHT22;55322;48.146;11.516;2022-10-16T05:15:02;13.31;90.51
68378;DHT22;55322;48.146;11.516;2022-10-16T05:17:28;13.28;90.66
68378;DHT22;55322;48.146;11.516;2022-10-16T05:19:53;13.34;89.95
68378;DHT22;55322;48.146;11.516;2022-10-16T05:22:19;13.31;90.34
68378;DHT22;55322;48.146;11.516;2022-10-16T05:24:44;13.34;89.64
68378;DHT22;55322;48.146;11.516;2022-10-16T05:27:10;13.35;90.00
68378;DHT22;55322;48.146;11.516;2022-10-16T05:29:36;13.35;89.90
68378;DHT22;55322;48.146;11.516;2022-10-16T05:32:02;13.35;90.33
68378;DHT22;55322;48.146;11.516;2022-10-16T05:34:27;13.30;90.07
68378;DHT22;55322;48.146;11.516;2022-10-16T05:36:52;13.25;90.58
68378;DHT22;55322;48.146;11.516;2022-10-16T05:39:18;13.18;92.81
68378;DHT22;55322;48.146;11.516;2022-10-16T05:41:44;13.06;93.56
68378;DHT22;55322;48.146;11.516;2022-10-16T05:44:09;12.96;93.85
68378;DHT22;55322;48.146;11.516;2022-10-16T05:46:35;12.89;94.60
68378;DHT22;55322;48.146;11.516;2022-10-16T05:49:00;12.80;94.95
68378;DHT22;55322;48.146;11.516;2022-10-16T05:51:25;12.76;94.89
68378;DHT22;55322;48.146;11.516;2022-10-16T05:53:52;12.69;95.28
68378;DHT22;55322;48.146;11.516;2022-10-16T05:56:17;12.66;95.37
68378;DHT22;55322;48.146;11.516;2022-10-16T05:58:43;12.63;95.39
68378;DHT22;55322;48.146;11.516;2022-10-16T06:01:10;12.57;95.03
68378;DHT22;55322;48.146;11.516;2022-10-16T06:03:36;12.60;95.03
68378;DHT22;55322;48.146;11.516;2022-10-16T06:06:12;12.56;94.81
68378;DHT22;55322;48.146;11.516;2022-10-16T06:08:38;12.56;94.51
68378;DHT22;55322;48.146;11.516;2022-10-16T06:11:06;12.60;94.91
68378;DHT22;55322;48.146;11.516;2022-10-16T06:13:32;12.62;95.25
68378;DHT22;55322;48.146;11.516;2022-10-16T06:15:59;12.60;95.15
68378;DHT22;55322;48.146;11.516;2022-10-16T06:18:25;12.63;94.99
68378;DHT22;55322;48.146;11.516;2022-10-16T06:20:50;12.67;94.93
68378;DHT22;55322;48.146;11.516;2022-10-16T06:23:16;12.73;94.54
68378;DHT22;55322;48.146;11.516;2022-10-16T06:25:41;12.75;94.86
68378;DHT22;55322;48.146;11.516;2022-10-16T06:28:06;12.83;94.43
68378;DHT22;55322;48.146;11.516;2022-10-16T06:30:32;12.86;94.58
68378;DHT22;55322;48.146;11.516;2022-10-16T06:32:57;12.73;94.31
68378;DHT22;55322;48.146;11.516;2022-10-16T06:35:22;12.66;94.59
68378;DHT22;55322;48.146;11.516;2022-10-16T06:37:49;12.66;94.84
68378;DHT22;55322;48.146;11.516;2022-10-16T06:40:14;12.67;95.12
68378;DHT22;55322;48.146;11.516;2022-10-16T06:42:40;12.69;94.96
68378;DHT22;55322;48.146;11.516;2022-10-16T06:45:06;12.66;94.99
68378;DHT22;55322;48.146;11.516;2022-10-16T06:47:31;12.76;94.80
68378;DHT22;55322;48.146;11.516;2022-10-16T06:49:56;12.83;94.69
68378;DHT22;55322;48.146;11.516;2022-10-16T06:52:22;12.90;94.58
68378;DHT22;55322;48.146;11.516;2022-10-16T06:54:47;12.96;94.17
68378;DHT22;55322;48.146;11.516;2022-10-16T06:57:12;12.96;93.82
68378;DHT22;55322;48.146;11.516;2022-10-16T06:59:38;13.00;93.68
68378;DHT22;55322;48.146;11.516;2022-10-16T07:02:03;13.04;93.47
68378;DHT22;55322;48.146;11.516;2022-10-16T07:04:28;13.15;93.50
68378;DHT22;55322;48.146;11.516;2022-10-16T07:06:54;13.21;93.42
68378;DHT22;55322;48.146;11.516;2022-10-16T07:09:19;13.30;93.17
68378;DHT22;55322;48.146;11.516;2022-10-16T07:11:44;13.75;91.74
68378;DHT22;55322;48.146;11.516;2022-10-16T07:14:17;14.88;86.65
68378;DHT22;55322;48.146;11.516;2022-10-16T07:16:43;15.31;84.60
68378;DHT22;55322;48.146;11.516;2022-10-16T07:19:08;15.56;81.68
68378;DHT22;55322;48.146;11.516;2022-10-16T07:21:34;16.00;80.77
68378;DHT22;55322;48.146;11.516;2022-10-16T07:24:04;15.81;81.40
68378;DHT22;55322;48.146;11.516;2022-10-16T07:26:32;15.85;81.21
68378;DHT22;55322;48.146;11.516;2022-10-16T07:28:58;15.79;82.07
68378;DHT22;55322;48.146;11.516;2022-10-16T07:31:23;16.05;81.94
68378;DHT22;55322;48.146;11.516;2022-10-16T07:33:50;15.93;80.91
68378;DHT22;55322;48.146;11.516;2022-10-16T07:36:17;16.59;78.67
68378;DHT22;55322;48.146;11.516;2022-10-16T07:38:44;16.64;77.41
68378;DHT22;55322;48.146;11.516;2022-10-16T07:41:18;16.92;77.87
68378;DHT22;55322;48.146;11.516;2022-10-16T07:43:51;16.53;77.61
68378;DHT22;55322;48.146;11.516;2022-10-16T07:46:18;16.14;80.89
68378;DHT22;55322;48.146;11.516;2022-10-16T07:48:44;16.75;79.97
68378;DHT22;55322;48.146;11.516;2022-10-16T07:51:13;17.65;76.33
68378;DHT22;55322;48.146;11.516;2022-10-16T07:53:38;18.17;75.87
68378;DHT22;55322;48.146;11.516;2022-10-16T07:56:05;18.01;72.76
68378;DHT22;55322;48.146;11.516;2022-10-16T07:58:32;19.55;70.80
68378;DHT22;55322;48.146;11.516;2022-10-16T08:00:58;19.91;66.74
68378;DHT22;55322;48.146;11.516;2022-10-16T08:03:24;21.20;65.10
68378;DHT22;55322;48.146;11.516;2022-10-16T08:05:50;22.31;62.39
68378;DHT22;55322;48.146;11.516;2022-10-16T08:08:17;22.86;56.72
68378;DHT22;55322;48.146;11.516;2022-10-16T08:10:42;23.47;54.73
68378;DHT22;55322;48.146;11.516;2022-10-16T08:13:09;24.39;55.70
68378;DHT22;55322;48.146;11.516;2022-10-16T08:15:34;24.93;52.45
68378;DHT22;55322;48.146;11.516;2022-10-16T08:18:01;25.26;49.76
68378;DHT22;55322;48.146;11.516;2022-10-16T08:20:28;25.31;49.87
68378;DHT22;55322;48.146;11.516;2022-10-16T08:22:53;25.15;48.82
68378;DHT22;55322;48.146;11.516;2022-10-16T08:25:20;25.02;49.14
68378;DHT22;55322;48.146;11.516;2022-10-16T08:27:46;25.61;48.39
68378;DHT22;55322;48.146;11.516;2022-10-16T08:30:11;25.66;49.58
68378;DHT22;55322;48.146;11.516;2022-10-16T08:32:36;25.95;48.25
68378;DHT22;55322;48.146;11.516;2022-10-16T08:35:02;26.49;47.70
68378;DHT22;55322;48.146;11.516;2022-10-16T08:37:31;26.59;46.73
68378;DHT22;55322;48.146;11.516;2022-10-16T08:39:57;26.79;47.15
68378;DHT22;55322;48.146;11.516;2022-10-16T08:48:06;27.39;45.99
68378;DHT22;55322;48.146;11.516;2022-10-16T08:50:37;28.12;41.96
68378;DHT22;55322;48.146;11.516;2022-10-16T08:53:04;28.29;41.84
68378;DHT22;55322;48.146;11.516;2022-10-16T08:57:59;27.85;41.51
68378;DHT22;55322;48.146;11.516;2022-10-16T09:00:26;27.87;43.77
68378;DHT22;55322;48.146;11.516;2022-10-16T09:03:07;28.51;41.22
68378;DHT22;55322;48.146;11.516;2022-10-16T09:05:53;28.76;40.93
68378;DHT22;55322;48.146;11.516;2022-10-16T09:10:57;29.28;39.01
68378;DHT22;55322;48.146;11.516;2022-10-16T09:13:40;29.04;40.93
68378;DHT22;55322;48.146;11.516;2022-10-16T09:16:29;29.17;39.74
68378;DHT22;55322;48.146;11.516;2022-10-16T09:21:27;28.79;40.55
68378;DHT22;55322;48.146;11.516;2022-10-16T09:23:57;28.73;40.76
68378;DHT22;55322;48.146;11.516;2022-10-16T09:26:23;29.10;38.19
68378;DHT22;55322;48.146;11.516;2022-10-16T09:28:48;28.97;41.01
68378;DHT22;55322;48.146;11.516;2022-10-16T09:31:19;29.14;38.75
68378;DHT22;55322;48.146;11.516;2022-10-16T09:33:49;28.79;41.36
68378;DHT22;55322;48.146;11.516;2022-10-16T09:36:16;29.03;38.64
68378;DHT22;55322;48.146;11.516;2022-10-16T09:38:43;28.87;40.02
68378;DHT22;55322;48.146;11.516;2022-10-16T09:48:54;28.73;38.33
68378;DHT22;55322;48.146;11.516;2022-10-16T09:51:28;29.02;39.75
68378;DHT22;55322;48.146;11.516;2022-10-16T09:53:57;29.18;37.89
68378;DHT22;55322;48.146;11.516;2022-10-16T09:56:26;28.93;38.80
68378;DHT22;55322;48.146;11.516;2022-10-16T09:58:53;29.00;36.01
68378;DHT22;55322;48.146;11.516;2022-10-16T10:01:19;29.44;38.36
68378;DHT22;55322;48.146;11.516;2022-10-16T10:03:45;29.24;37.76
68378;DHT22;55322;48.146;11.516;2022-10-16T10:06:20;29.55;38.59
68378;DHT22;55322;48.146;11.516;2022-10-16T10:09:06;30.00;37.64
68378;DHT22;55322;48.146;11.516;2022-10-16T10:11:44;30.00;37.45
68378;DHT22;55322;48.146;11.516;2022-10-16T10:14:20;30.25;35.55
68378;DHT22;55322;48.146;11.516;2022-10-16T10:16:46;30.04;35.31
68378;DHT22;55322;48.146;11.516;2022-10-16T10:19:22;30.13;35.45
68378;DHT22;55322;48.146;11.516;2022-10-16T10:21:49;29.88;34.22
68378;DHT22;55322;48.146;11.516;2022-10-16T10:24:18;30.00;35.12
68378;DHT22;55322;48.146;11.516;2022-10-16T10:27:04;30.12;34.80
68378;DHT22;55322;48.146;11.516;2022-10-16T10:29:50;29.75;35.17
68378;DHT22;55322;48.146;11.516;2022-10-16T10:32:30;29.60;34.69
68378;DHT22;55322;48.146;11.516;2022-10-16T10:35:14;29.55;35.94
68378;DHT22;55322;48.146;11.516;2022-10-16T10:37:48;30.04;36.81
68378;DHT22;55322;48.146;11.516;2022-10-16T10:46:41;29.72;34.92
68378;DHT22;55322;48.146;11.516;2022-10-16T10:49:19;30.31;35.31
68378;DHT22;55322;48.146;11.516;2022-10-16T10:54:42;31.50;36.96
68378;DHT22;55322;48.146;11.516;2022-10-16T10:57:25;30.32;33.54
68378;DHT22;55322;48.146;11.516;2022-10-16T11:02:55;29.53;39.02
68378;DHT22;55322;48.146;11.516;2022-10-16T11:05:33;30.12;38.03
68378;DHT22;55322;48.146;11.516;2022-10-16T11:08:17;28.46;39.76
68378;DHT22;55322;48.146;11.516;2022-10-16T11:10:52;28.79;40.22
68378;DHT22;55322;48.146;11.516;2022-10-16T11:15:59;28.45;40.12
68378;DHT22;55322;48.146;11.516;2022-10-16T11:18:56;28.60;41.05
68378;DHT22;55322;48.146;11.516;2022-10-16T11:21:24;28.42;39.64
68378;DHT22;55322;48.146;11.516;2022-10-16T11:24:00;28.51;39.96
68378;DHT22;55322;48.146;11.516;2022-10-16T11:26:39;28.75;37.78
68378;DHT22;55322;48.146;11.516;2022-10-16T11:29:12;28.89;36.86
68378;DHT22;55322;48.146;11.516;2022-10-16T11:31:48;29.09;35.45
68378;DHT22;55322;48.146;11.516;2022-10-16T11:34:37;28.44;36.86
68378;DHT22;55322;48.146;11.516;2022-10-16T11:37:46;27.61;37.50
68378;DHT22;55322;48.146;11.516;2022-10-16T11:40:31;27.58;39.28
68378;DHT22;55322;48.146;11.516;2022-10-16T11:43:06;28.19;35.49
68378;DHT22;55322;48.146;11.516;2022-10-16T11:45:40;27.95;39.68
68378;DHT22;55322;48.146;11.516;2022-10-16T11:48:43;27.78;38.09
68378;DHT22;55322;48.146;11.516;2022-10-16T11:56:43;28.34;36.63
68378;DHT22;55322;48.146;11.516;2022-10-16T11:59:16;28.36;36.76
68378;DHT22;55322;48.146;11.516;2022-10-16T12:01:47;27.87;37.59
68378;DHT22;55322;48.146;11.516;2022-10-16T12:04:22;27.33;38.26
68378;DHT22;55322;48.146;11.516;2022-10-16T12:06:59;27.53;38.60
68378;DHT22;55322;48.146;11.516;2022-10-16T12:09:30;27.54;37.96
68378;DHT22;55322;48.146;11.516;2022-10-16T12:11:56;27.30;38.75
68378;DHT22;55322;48.146;11.516;2022-10-16T12:16:55;27.26;38.01
68378;DHT22;55322;48.146;11.516;2022-10-16T12:19:22;27.02;39.51
68378;DHT22;55322;48.146;11.516;2022-10-16T12:21:50;27.17;38.71
68378;DHT22;55322;48.146;11.516;2022-10-16T12:24:38;26.96;40.72
68378;DHT22;55322;48.146;11.516;2022-10-16T12:27:21;26.72;38.46
68378;DHT22;55322;48.146;11.516;2022-10-16T12:29:46;26.53;41.18
68378;DHT22;55322;48.146;11.516;2022-10-16T12:32:38;26.73;39.33
68378;DHT22;55322;48.146;11.516;2022-10-16T12:35:16;26.87;41.25
68378;DHT22;55322;48.146;11.516;2022-10-16T12:37:44;26.97;39.98
68378;DHT22;55322;48.146;11.516;2022-10-16T12:40:16;26.75;40.97
68378;DHT22;55322;48.146;11.516;2022-10-16T12:42:48;26.48;38.08
68378;DHT22;55322;48.146;11.516;2022-10-16T12:45:46;26.38;41.64
68378;DHT22;55322;48.146;11.516;2022-10-16T12:48:20;25.67;42.24
68378;DHT22;55322;48.146;11.516;2022-10-16T12:50:46;24.99;45.26
68378;DHT22;55322;48.146;11.516;2022-10-16T12:53:24;25.33;43.04
68378;DHT22;55322;48.146;11.516;2022-10-16T13:01:22;25.69;42.33
68378;DHT22;55322;48.146;11.516;2022-10-16T13:04:04;25.13;46.08
68378;DHT22;55322;48.146;11.516;2022-10-16T13:07:03;24.77;43.91
68378;DHT22;55322;48.146;11.516;2022-10-16T13:18:00;25.23;42.57
68378;DHT22;55322;48.146;11.516;2022-10-16T13:20:35;24.97;41.95
68378;DHT22;55322;48.146;11.516;2022-10-16T13:28:06;23.66;45.97
68378;DHT22;55322;48.146;11.516;2022-10-16T13:30:41;23.56;45.80
68378;DHT22;55322;48.146;11.516;2022-10-16T13:33:14;23.71;45.04
68378;DHT22;55322;48.146;11.516;2022-10-16T13:35:52;23.66;45.64
68378;DHT22;55322;48.146;11.516;2022-10-16T13:38:20;23.53;46.46
68378;DHT22;55322;48.146;11.516;2022-10-16T13:41:12;23.60;45.26
68378;DHT22;55322;48.146;11.516;2022-10-16T13:43:42;23.75;45.85
68378;DHT22;55322;48.146;11.516;2022-10-16T13:46:16;24.00;42.63
68378;DHT22;55322;48.146;11.516;2022-10-16T13:48:42;23.88;44.53
68378;DHT22;55322;48.146;11.516;2022-10-16T13:51:16;23.61;45.59
68378;DHT22;55322;48.146;11.516;2022-10-16T13:53:42;23.34;47.14
68378;DHT22;55322;48.146;11.516;2022-10-16T13:56:16;23.39;47.91
68378;DHT22;55322;48.146;11.516;2022-10-16T13:58:43;23.43;46.16
68378;DHT22;55322;48.146;11.516;2022-10-16T14:01:40;23.39;45.58
68378;DHT22;55322;48.146;11.516;2022-10-16T14:04:08;23.33;48.06
68378;DHT22;55322;48.146;11.516;2022-10-16T14:06:36;23.33;46.35
68378;DHT22;55322;48.146;11.516;2022-10-16T14:09:07;23.02;47.70
68378;DHT22;55322;48.146;11.516;2022-10-16T14:11:37;22.95;47.69
68378;DHT22;55322;48.146;11.516;2022-10-16T14:14:11;22.84;48.19
68378;DHT22;55322;48.146;11.516;2022-10-16T14:16:40;23.00;48.19
68378;DHT22;55322;48.146;11.516;2022-10-16T14:19:06;23.26;42.97
68378;DHT22;55322;48.146;11.516;2022-10-16T14:21:32;23.40;45.53
68378;DHT22;55322;48.146;11.516;2022-10-16T14:23:58;23.22;47.42
68378;DHT22;55322;48.146;11.516;2022-10-16T14:26:27;23.13;47.12
68378;DHT22;55322;48.146;11.516;2022-10-16T14:29:12;22.96;48.02
68378;DHT22;55322;48.146;11.516;2022-10-16T14:31:38;22.84;50.84
68378;DHT22;55322;48.146;11.516;2022-10-16T14:34:04;22.92;48.26
68378;DHT22;55322;48.146;11.516;2022-10-16T14:36:30;23.02;43.15
68378;DHT22;55322;48.146;11.516;2022-10-16T14:39:04;22.79;49.18
68378;DHT22;55322;48.146;11.516;2022-10-16T14:41:32;22.65;48.79
68378;DHT22;55322;48.146;11.516;2022-10-16T14:44:04;22.25;50.47
68378;DHT22;55322;48.146;11.516;2022-10-16T14:46:36;21.91;52.62
68378;DHT22;55322;48.146;11.516;2022-10-16T14:49:13;21.70;53.11
68378;DHT22;55322;48.146;11.516;2022-10-16T14:51:41;21.45;57.50
68378;DHT22;55322;48.146;11.516;2022-10-16T14:54:08;21.15;59.46
68378;DHT22;55322;48.146;11.516;2022-10-16T14:59:14;21.09;55.97
68378;DHT22;55322;48.146;11.516;2022-10-16T15:01:43;20.86;57.61
68378;DHT22;55322;48.146;11.516;2022-10-16T15:04:11;20.72;59.09
68378;DHT22;55322;48.146;11.516;2022-10-16T15:06:36;20.74;58.38
68378;DHT22;55322;48.146;11.516;2022-10-16T15:09:02;20.54;59.70
68378;DHT22;55322;48.146;11.516;2022-10-16T15:11:28;20.38;60.34
68378;DHT22;55322;48.146;11.516;2022-10-16T15:13:53;20.17;62.48
68378;DHT22;55322;48.146;11.516;2022-10-16T15:16:18;20.04;63.86
68378;DHT22;55322;48.146;11.516;2022-10-16T15:18:43;20.04;63.20
68378;DHT22;55322;48.146;11.516;2022-10-16T15:21:22;19.90;62.50
68378;DHT22;55322;48.146;11.516;2022-10-16T15:23:49;19.86;63.45
68378;DHT22;55322;48.146;11.516;2022-10-16T15:26:15;19.77;62.61
68378;DHT22;55322;48.146;11.516;2022-10-16T15:28:41;19.70;63.72
68378;DHT22;55322;48.146;11.516;2022-10-16T15:31:06;19.69;64.89
68378;DHT22;55322;48.146;11.516;2022-10-16T15:33:31;19.60;63.36
68378;DHT22;55322;48.146;11.516;2022-10-16T15:35:59;19.66;64.75
68378;DHT22;55322;48.146;11.516;2022-10-16T15:38:26;19.60;63.46
68378;DHT22;55322;48.146;11.516;2022-10-16T15:40:52;19.43;66.47
68378;DHT22;55322;48.146;11.516;2022-10-16T15:43:17;19.33;67.26
68378;DHT22;55322;48.146;11.516;2022-10-16T15:45:44;19.22;66.82
68378;DHT22;55322;48.146;11.516;2022-10-16T15:48:13;19.06;69.00
68378;DHT22;55322;48.146;11.516;2022-10-16T15:50:39;19.14;68.90
68378;DHT22;55322;48.146;11.516;2022-10-16T15:53:04;19.09;68.65
68378;DHT22;55322;48.146;11.516;2022-10-16T15:55:30;18.96;68.91
68378;DHT22;55322;48.146;11.516;2022-10-16T15:57:55;18.85;69.84
68378;DHT22;55322;48.146;11.516;2022-10-16T16:00:21;18.89;71.53
68378;DHT22;55322;48.146;11.516;2022-10-16T16:02:52;18.76;70.85
68378;DHT22;55322;48.146;11.516;2022-10-16T16:05:19;18.63;69.95
68378;DHT22;55322;48.146;11.516;2022-10-16T16:07:45;18.71;71.45
68378;DHT22;55322;48.146;11.516;2022-10-16T16:10:11;18.96;70.10
68378;DHT22;55322;48.146;11.516;2022-10-16T16:12:37;18.95;69.05
68378;DHT22;55322;48.146;11.516;2022-10-16T16:15:06;19.15;71.82
68378;DHT22;55322;48.146;11.516;2022-10-16T16:17:33;19.12;69.59
68378;DHT22;55322;48.146;11.516;2022-10-16T16:19:58;19.09;71.03
68378;DHT22;55322;48.146;11.516;2022-10-16T16:22:23;18.91;70.83
68378;DHT22;55322;48.146;11.516;2022-10-16T16:24:49;18.65;71.89
68378;DHT22;55322;48.146;11.516;2022-10-16T16:27:14;18.41;71.89
68378;DHT22;55322;48.146;11.516;2022-10-16T16:29:40;18.26;73.35
68378;DHT22;55322;48.146;11.516;2022-10-16T16:32:05;18.06;73.25
68378;DHT22;55322;48.146;11.516;2022-10-16T16:34:30;17.94;74.09
68378;DHT22;55322;48.146;11.516;2022-10-16T16:36:56;17.78;73.77
68378;DHT22;55322;48.146;11.516;2022-10-16T16:39:22;17.68;75.63
68378;DHT22;55322;48.146;11.516;2022-10-16T16:41:47;17.50;76.06
68378;DHT22;55322;48.146;11.516;2022-10-16T16:44:14;17.38;77.26
68378;DHT22;55322;48.146;11.516;2022-10-16T16:46:40;17.31;77.81
68378;DHT22;55322;48.146;11.516;2022-10-16T16:49:09;17.11;77.45
68378;DHT22;55322;48.146;11.516;2022-10-16T16:51:35;17.04;78.36